createdAt,value
2018-02-24T00:01:52.729Z,41.73
2018-02-24T00:04:20.508Z,41.30
2018-02-24T00:06:48.314Z,43.27
2018-02-24T00:09:16.106Z,44.20
2018-02-24T00:11:43.847Z,43.67
2018-02-24T00:14:12.606Z,46.70
2018-02-24T00:16:40.366Z,43.80
2018-02-24T00:19:08.290Z,45.40
2018-02-24T00:21:36.328Z,44.30
2018-02-24T00:24:04.106Z,43.17
2018-02-24T00:26:31.926Z,43.30
2018-02-24T00:28:59.726Z,45.40
2018-02-24T00:31:27.886Z,45.87
2018-02-24T00:33:56.386Z,46.10
2018-02-24T00:36:24.186Z,44.30
2018-02-24T00:38:51.986Z,43.43
2018-02-24T00:41:19.965Z,42.23
2018-02-24T00:43:47.765Z,42.90
2018-02-24T00:46:15.453Z,41.57
2018-02-24T00:48:43.245Z,40.57
2018-02-24T00:51:11.087Z,42.63
2018-02-24T00:53:38.927Z,43.13
2018-02-24T00:56:06.851Z,40.77
2018-02-24T00:58:34.686Z,43.47
2018-02-24T01:01:02.592Z,42.57
2018-02-24T01:03:30.550Z,47.57
2018-02-24T01:05:58.369Z,43.87
2018-02-24T01:08:26.228Z,46.70
2018-02-24T01:10:54.109Z,46.47
2018-02-24T01:13:21.877Z,48.93
2018-02-24T01:15:49.605Z,46.80
2018-02-24T01:18:17.345Z,45.67
2018-02-24T01:20:45.291Z,42.10
2018-02-24T01:23:13.065Z,40.37
2018-02-24T01:25:40.850Z,39.53
2018-02-24T01:28:08.706Z,41.30
2018-02-24T01:30:37.368Z,43.67
2018-02-24T01:33:05.488Z,44.23
2018-02-24T01:35:33.368Z,44.87
2018-02-24T01:38:01.569Z,42.60
2018-02-24T01:40:29.407Z,43.67
2018-02-24T01:42:57.208Z,42.27
2018-02-24T01:45:25.093Z,41.57
2018-02-24T01:47:53.108Z,43.77
2018-02-24T01:50:21.308Z,44.70
2018-02-24T01:52:49.108Z,45.90
2018-02-24T01:55:16.868Z,43.90
2018-02-24T01:57:45.414Z,44.80
2018-02-24T02:00:14.042Z,44.80
2018-02-24T02:02:41.906Z,44.50
2018-02-24T02:05:09.846Z,44.40
2018-02-24T02:07:37.646Z,44.23
2018-02-24T02:10:05.408Z,45.73
2018-02-24T02:12:33.226Z,45.40
2018-02-24T02:17:33.205Z,44.63
2018-02-24T02:20:01.885Z,43.40
2018-02-24T02:22:29.687Z,42.43
2018-02-24T02:24:57.526Z,43.67
2018-02-24T02:27:25.307Z,45.63
2018-02-24T02:29:53.146Z,45.97
2018-02-24T02:32:21.646Z,43.00
2018-02-24T02:34:49.738Z,42.67
2018-02-24T02:37:17.613Z,45.30
2018-02-24T02:39:45.367Z,44.60
2018-02-24T02:42:13.686Z,42.60
2018-02-24T02:44:42.206Z,43.20
2018-02-24T02:47:10.047Z,44.93
2018-02-24T02:49:38.185Z,45.77
2018-02-24T02:52:06.246Z,46.37
2018-02-24T02:54:34.066Z,44.17
2018-02-24T02:57:02.187Z,43.77
2018-02-24T02:59:29.906Z,42.77
2018-02-24T03:01:57.647Z,43.20
2018-02-24T03:04:25.547Z,42.43
2018-02-24T03:06:53.547Z,42.53
2018-02-24T03:09:21.346Z,41.53
2018-02-24T03:11:49.094Z,40.00
2018-02-24T03:14:16.926Z,41.97
2018-02-24T03:16:44.692Z,40.50
2018-02-24T03:19:13.366Z,41.83
2018-02-24T03:21:41.146Z,42.60
2018-02-24T03:24:09.865Z,42.03
2018-02-24T03:26:37.726Z,41.50
2018-02-24T03:29:05.585Z,42.17
2018-02-24T03:31:33.427Z,41.47
2018-02-24T03:34:01.165Z,39.40
2018-02-24T03:36:28.987Z,40.77
2018-02-24T03:38:56.966Z,41.60
2018-02-24T03:41:25.506Z,40.73
2018-02-24T03:43:53.846Z,39.93
2018-02-24T03:46:28.366Z,38.03
2018-02-24T03:48:56.247Z,40.87
2018-02-24T03:51:24.048Z,42.40
2018-02-24T03:53:51.845Z,41.33
2018-02-24T03:56:19.725Z,41.67
2018-02-24T03:58:47.726Z,41.63
2018-02-24T04:01:15.785Z,39.73
2018-02-24T04:03:43.505Z,43.27
2018-02-24T04:06:12.066Z,41.73
2018-02-24T04:08:39.886Z,38.40
2018-02-24T04:11:07.747Z,39.83
2018-02-24T04:13:35.507Z,39.97
2018-02-24T04:16:03.247Z,40.57
2018-02-24T04:18:31.969Z,39.47
2018-02-24T04:20:59.886Z,41.17
2018-02-24T04:23:27.805Z,42.00
2018-02-24T04:25:55.726Z,42.03
2018-02-24T04:28:23.586Z,41.80
2018-02-24T04:30:51.526Z,41.33
2018-02-24T04:33:20.085Z,43.20
2018-02-24T04:35:47.905Z,43.27
2018-02-24T04:38:15.686Z,42.70
2018-02-24T04:40:43.526Z,43.57
2018-02-24T04:43:11.666Z,43.43
2018-02-24T04:45:39.386Z,41.93
2018-02-24T04:48:07.232Z,42.13
2018-02-24T04:50:35.228Z,40.10
2018-02-24T04:53:03.006Z,40.93
2018-02-24T04:55:30.907Z,41.43
2018-02-24T04:57:58.766Z,40.20
2018-02-24T05:00:26.525Z,41.77
2018-02-24T05:02:54.306Z,40.13
2018-02-24T05:05:22.745Z,42.90
2018-02-24T05:07:50.547Z,39.93
2018-02-24T05:10:18.306Z,40.77
2018-02-24T05:12:46.825Z,40.83
2018-02-24T05:15:14.566Z,41.43
2018-02-24T05:17:43.206Z,41.73
2018-02-24T05:20:11.164Z,43.87
2018-02-24T05:22:38.913Z,45.17
2018-02-24T05:25:06.647Z,44.07
2018-02-24T05:27:34.452Z,44.57
2018-02-24T05:30:03.405Z,41.90
2018-02-24T05:32:31.227Z,43.90
2018-02-24T05:34:59.146Z,43.17
2018-02-24T05:37:27.126Z,43.20
2018-02-24T05:39:55.826Z,43.67
2018-02-24T05:42:24.646Z,43.27
2018-02-24T05:44:52.385Z,41.50
2018-02-24T05:47:20.266Z,43.47
2018-02-24T05:49:48.105Z,43.60
2018-02-24T05:52:15.965Z,43.80
2018-02-24T05:54:43.866Z,44.57
2018-02-24T05:57:11.646Z,42.63
2018-02-24T05:59:40.387Z,44.10
2018-02-24T06:02:08.930Z,42.27
2018-02-24T06:04:37.509Z,42.83
2018-02-24T06:07:05.349Z,45.30
2018-02-24T06:09:34.069Z,41.53
2018-02-24T06:12:01.831Z,42.00
2018-02-24T06:14:29.870Z,43.17
2018-02-24T06:16:57.649Z,41.93
2018-02-24T06:19:25.548Z,43.83
2018-02-24T06:21:53.407Z,42.17
2018-02-24T06:24:21.148Z,40.80
2018-02-24T06:26:49.029Z,42.67
2018-02-24T06:29:16.926Z,42.60
2018-02-24T06:31:45.526Z,41.43
2018-02-24T06:34:13.384Z,42.83
2018-02-24T06:36:41.306Z,42.40
2018-02-24T06:39:09.109Z,40.33
2018-02-24T06:41:36.965Z,40.13
2018-02-24T06:44:04.786Z,40.87
2018-02-24T06:46:32.565Z,40.90
2018-02-24T06:49:00.367Z,40.97
2018-02-24T06:51:28.387Z,41.60
2018-02-24T06:53:56.267Z,38.03
2018-02-24T06:56:25.134Z,42.77
2018-02-24T06:58:52.946Z,42.67
2018-02-24T07:01:20.685Z,41.37
2018-02-24T07:03:48.566Z,37.97
2018-02-24T07:06:16.385Z,40.33
2018-02-24T07:08:44.386Z,40.47
2018-02-24T07:11:12.226Z,38.80
2018-02-24T07:13:40.066Z,39.70
2018-02-24T07:16:07.845Z,38.07
2018-02-24T07:18:35.585Z,38.70
2018-02-24T07:21:04.225Z,40.13
2018-02-24T07:23:31.946Z,40.73
2018-02-24T07:25:59.610Z,37.67
2018-02-24T07:28:27.327Z,39.23
2018-02-24T07:30:55.026Z,39.00
2018-02-24T07:33:22.786Z,42.27
2018-02-24T07:35:50.608Z,39.20
2018-02-24T07:38:18.326Z,38.90
2018-02-24T07:40:46.022Z,40.97
2018-02-24T07:43:14.575Z,41.27
2018-02-24T07:45:42.290Z,39.87
2018-02-24T07:48:10.766Z,40.53
2018-02-24T07:50:38.570Z,39.83
2018-02-24T07:53:06.308Z,40.37
2018-02-24T07:55:34.047Z,40.37
2018-02-24T07:58:01.845Z,39.47
2018-02-24T08:00:29.813Z,39.37
2018-02-24T08:02:57.549Z,39.10
2018-02-24T08:05:25.309Z,38.17
2018-02-24T08:07:53.071Z,40.97
2018-02-24T08:10:20.770Z,41.47
2018-02-24T08:12:48.491Z,42.23
2018-02-24T08:15:16.990Z,41.33
2018-02-24T08:17:44.807Z,42.33
2018-02-24T08:20:12.530Z,42.57
2018-02-24T08:22:41.009Z,43.30
2018-02-24T08:25:09.548Z,43.13
2018-02-24T08:27:38.068Z,44.73
2018-02-24T08:30:05.928Z,44.77
2018-02-24T08:35:05.728Z,41.70
2018-02-24T08:37:33.488Z,41.50
2018-02-24T08:40:01.209Z,42.13
2018-02-24T08:42:29.041Z,40.77
2018-02-24T08:44:56.766Z,45.07
2018-02-24T08:47:24.493Z,42.63
2018-02-24T08:52:24.919Z,42.57
2018-02-24T08:54:52.686Z,43.07
2018-02-24T08:57:20.446Z,43.23
2018-02-24T08:59:48.206Z,42.27
2018-02-24T09:02:15.905Z,41.83
2018-02-24T09:04:44.205Z,45.20
2018-02-24T09:07:12.065Z,43.63
2018-02-24T09:09:39.825Z,44.37
2018-02-24T09:12:07.646Z,41.43
2018-02-24T09:14:35.488Z,43.40
2018-02-24T09:17:03.414Z,41.63
2018-02-24T09:19:31.246Z,44.23
2018-02-24T09:21:59.013Z,40.13
2018-02-24T09:24:27.108Z,39.80
2018-02-24T09:26:55.015Z,39.47
2018-02-24T09:29:22.886Z,42.77
2018-02-24T09:31:50.787Z,41.00
2018-02-24T09:34:18.586Z,40.63
2018-02-24T09:36:46.305Z,40.60
2018-02-24T09:39:14.246Z,40.67
2018-02-24T09:41:42.046Z,42.47
2018-02-24T09:44:10.066Z,39.23
2018-02-24T09:46:37.867Z,41.10
2018-02-24T09:49:06.486Z,41.43
2018-02-24T09:51:34.447Z,42.73
2018-02-24T09:54:03.046Z,40.97
2018-02-24T09:56:31.069Z,40.30
2018-02-24T09:58:58.992Z,41.57
2018-02-24T10:01:27.773Z,41.40
2018-02-24T10:03:55.717Z,42.97
2018-02-24T10:06:23.699Z,39.50
2018-02-24T10:08:51.569Z,39.60
2018-02-24T10:11:19.441Z,39.23
2018-02-24T10:13:47.170Z,40.93
2018-02-24T10:16:15.070Z,40.70
2018-02-24T10:18:42.969Z,40.10
2018-02-24T10:21:11.509Z,39.83
2018-02-24T10:23:40.031Z,39.90
2018-02-24T10:26:07.970Z,42.27
2018-02-24T10:28:35.887Z,39.73
2018-02-24T10:31:03.927Z,40.20
2018-02-24T10:33:31.728Z,39.83
2018-02-24T10:36:00.608Z,40.63
2018-02-24T10:38:29.288Z,43.97
2018-02-24T10:40:57.109Z,41.80
2018-02-24T10:43:25.248Z,40.53
2018-02-24T10:45:53.122Z,44.33
2018-02-24T10:48:22.049Z,41.90
2018-02-24T10:50:51.348Z,42.77
2018-02-24T10:53:20.107Z,42.73
2018-02-24T10:55:47.925Z,42.57
2018-02-24T10:58:16.588Z,44.03
2018-02-24T11:00:45.153Z,44.00
2018-02-24T11:03:12.868Z,43.83
2018-02-24T11:05:41.944Z,45.90
2018-02-24T11:08:09.725Z,44.97
2018-02-24T11:10:37.510Z,45.90
2018-02-24T11:13:06.131Z,44.73
2018-02-24T11:15:33.867Z,43.07
2018-02-24T11:18:01.698Z,43.10
2018-02-24T11:20:29.608Z,44.30
2018-02-24T11:22:57.544Z,45.77
2018-02-24T11:25:25.706Z,43.67
2018-02-24T11:27:53.596Z,43.63
2018-02-24T11:30:21.647Z,40.73
2018-02-24T11:32:49.487Z,40.60
2018-02-24T11:35:17.294Z,42.27
2018-02-24T11:37:45.253Z,40.03
2018-02-24T11:40:12.941Z,39.77
2018-02-24T11:42:40.670Z,39.77
2018-02-24T11:45:08.626Z,39.53
2018-02-24T11:47:36.506Z,39.73
2018-02-24T11:50:04.314Z,41.17
2018-02-24T11:52:32.348Z,40.03
2018-02-24T11:55:00.949Z,39.30
2018-02-24T11:57:28.908Z,38.63
2018-02-24T11:59:57.028Z,38.07
2018-02-24T12:02:24.898Z,37.70
2018-02-24T12:04:53.750Z,36.43
2018-02-24T12:07:21.968Z,39.67
2018-02-24T12:09:49.893Z,38.13
2018-02-24T12:12:17.688Z,52.67
2018-02-24T12:14:45.588Z,36.43
2018-02-24T12:17:14.238Z,36.00
2018-02-24T12:19:42.147Z,36.63
2018-02-24T12:22:10.009Z,36.07
2018-02-24T12:24:37.851Z,37.40
2018-02-24T12:27:05.697Z,34.60
2018-02-24T12:29:33.549Z,35.33
2018-02-24T12:32:01.412Z,36.47
2018-02-24T12:34:31.225Z,36.23
2018-02-24T12:36:59.046Z,36.10
2018-02-24T12:39:27.008Z,37.00
2018-02-24T12:44:26.991Z,34.53
2018-02-24T12:46:54.790Z,31.77
2018-02-24T12:49:22.679Z,33.37
2018-02-24T12:51:50.460Z,34.60
2018-02-24T12:54:18.338Z,32.93
2018-02-24T12:56:46.318Z,33.23
2018-02-24T12:59:14.371Z,32.43
2018-02-24T13:01:42.397Z,31.13
2018-02-24T13:04:11.210Z,31.70
2018-02-24T13:06:39.010Z,32.53
2018-02-24T13:09:07.491Z,30.30
2018-02-24T13:11:35.390Z,33.07
2018-02-24T13:14:04.550Z,30.67
2018-02-24T13:16:32.851Z,30.17
2018-02-24T13:19:00.690Z,27.77
2018-02-24T13:21:29.250Z,26.53
2018-02-24T13:23:57.197Z,27.10
2018-02-24T13:26:25.250Z,25.70
2018-02-24T13:28:53.729Z,27.07
2018-02-24T13:31:23.073Z,27.30
2018-02-24T13:33:51.412Z,28.20
2018-02-24T13:36:20.250Z,25.53
2018-02-24T13:38:48.250Z,25.50
2018-02-24T13:41:16.452Z,24.87
2018-02-24T13:43:44.470Z,25.63
2018-02-24T13:46:12.430Z,24.30
2018-02-24T13:48:40.871Z,24.33
2018-02-24T13:51:08.787Z,23.63
2018-02-24T13:53:37.127Z,23.87
2018-02-24T13:56:05.072Z,23.73
2018-02-24T13:58:33.247Z,24.40
2018-02-24T14:01:01.078Z,23.80
2018-02-24T14:03:29.649Z,16.23
2018-02-24T14:05:58.687Z,12.33
2018-02-24T14:08:26.908Z,11.30
2018-02-24T14:10:55.067Z,11.70
2018-02-24T14:13:24.727Z,10.70
2018-02-24T14:15:52.706Z,11.93
2018-02-24T14:18:20.647Z,13.10
2018-02-24T14:20:48.577Z,13.30
2018-02-24T14:23:17.568Z,13.70
2018-02-24T14:25:46.369Z,11.93
2018-02-24T14:28:14.929Z,11.43
2018-02-24T14:30:43.487Z,10.10
2018-02-24T14:33:11.427Z,8.73
2018-02-24T14:35:40.109Z,8.27
2018-02-24T14:38:07.968Z,8.23
2018-02-24T14:40:35.807Z,7.73
2018-02-24T14:43:04.996Z,8.73
2018-02-24T14:45:32.768Z,7.27
2018-02-24T14:48:00.586Z,6.50
2018-02-24T14:50:28.730Z,7.10
2018-02-24T14:52:57.326Z,7.37
2018-02-24T14:55:25.407Z,6.90
2018-02-24T14:57:53.567Z,6.47
2018-02-24T15:00:21.414Z,6.87
2018-02-24T15:02:51.815Z,6.87
2018-02-24T15:05:19.875Z,7.40
2018-02-24T15:07:48.096Z,25.77
2018-02-24T15:10:15.997Z,29.57
2018-02-24T15:12:43.906Z,30.37
2018-02-24T15:15:11.728Z,30.00
2018-02-24T15:17:41.071Z,30.40
2018-02-24T15:20:09.028Z,29.63
2018-02-24T15:22:37.367Z,30.33
2018-02-24T15:25:07.096Z,29.17
2018-02-24T15:27:35.133Z,30.40
2018-02-24T15:30:02.948Z,30.30
2018-02-24T15:32:31.018Z,30.30
2018-02-24T15:34:58.968Z,28.57
2018-02-24T15:37:27.041Z,26.90
2018-02-24T15:39:55.599Z,29.53
2018-02-24T15:42:23.430Z,29.40
2018-02-24T15:44:51.348Z,29.83
2018-02-24T15:47:19.248Z,29.17
2018-02-24T15:49:47.156Z,28.87
2018-02-24T15:52:15.117Z,27.60
2018-02-24T15:54:42.910Z,30.87
2018-02-24T15:57:10.809Z,28.73
2018-02-24T15:59:39.048Z,29.73
2018-02-24T16:02:07.968Z,25.37
2018-02-24T16:04:35.970Z,28.63
2018-02-24T16:07:03.751Z,28.90
2018-02-24T16:09:32.574Z,28.50
2018-02-24T16:12:00.411Z,29.77
2018-02-24T16:14:28.611Z,28.23
2018-02-24T16:16:56.530Z,28.30
2018-02-24T16:19:24.391Z,24.53
2018-02-24T16:21:52.212Z,24.77
2018-02-24T16:24:19.951Z,29.43
2018-02-24T16:26:47.831Z,26.40
2018-02-24T16:29:15.689Z,17.00
2018-02-24T16:31:43.734Z,14.00
2018-02-24T16:34:12.349Z,9.90
2018-02-24T16:36:40.244Z,9.63
2018-02-24T16:39:07.968Z,8.67
2018-02-24T16:41:35.828Z,8.20
2018-02-24T16:44:03.941Z,8.47
2018-02-24T16:46:31.884Z,9.00
2018-02-24T16:48:59.917Z,8.63
2018-02-24T16:51:27.792Z,10.80
2018-02-24T16:53:55.684Z,10.53
2018-02-24T16:56:23.652Z,11.10
2018-02-24T16:58:51.514Z,10.77
2018-02-24T17:01:19.427Z,10.63
2018-02-24T17:03:47.428Z,10.17
2018-02-24T17:06:15.439Z,11.70
2018-02-24T17:08:43.508Z,10.40
2018-02-24T17:11:11.648Z,11.03
2018-02-24T17:13:41.869Z,12.97
2018-02-24T17:16:09.647Z,12.13
2018-02-24T17:18:37.607Z,12.07
2018-02-24T17:21:05.453Z,12.87
2018-02-24T17:23:33.253Z,13.47
2018-02-24T17:26:01.168Z,12.97
2018-02-24T17:28:29.128Z,13.33
2018-02-24T17:30:57.689Z,13.17
2018-02-24T17:33:25.571Z,13.23
2018-02-24T17:35:53.308Z,14.07
2018-02-24T17:38:21.129Z,13.37
2018-02-24T17:40:49.709Z,12.37
2018-02-24T17:43:17.708Z,13.77
2018-02-24T17:45:45.628Z,14.03
2018-02-24T17:48:13.487Z,13.63
2018-02-24T17:50:42.270Z,13.77
2018-02-24T17:53:10.487Z,13.10
2018-02-24T17:55:38.347Z,14.10
2018-02-24T17:58:06.171Z,18.40
2018-02-24T18:00:34.716Z,16.30
2018-02-24T18:03:03.587Z,15.67
2018-02-24T18:05:31.506Z,15.40
2018-02-24T18:07:59.407Z,15.60
2018-02-24T18:10:27.247Z,15.27
2018-02-24T18:12:55.175Z,15.47
2018-02-24T18:15:23.248Z,15.67
2018-02-24T18:17:51.394Z,15.13
2018-02-24T18:20:20.728Z,16.13
2018-02-24T18:22:49.346Z,15.00
2018-02-24T18:25:17.470Z,16.27
2018-02-24T18:27:45.832Z,15.40
2018-02-24T18:30:13.855Z,15.90
2018-02-24T18:32:41.807Z,14.33
2018-02-24T18:35:09.649Z,14.90
2018-02-24T18:37:37.531Z,15.83
2018-02-24T18:40:05.671Z,16.60
2018-02-24T18:42:33.568Z,15.27
2018-02-24T18:45:01.585Z,15.30
2018-02-24T18:47:29.574Z,15.07
2018-02-24T18:49:57.420Z,15.20
2018-02-24T18:52:25.313Z,14.90
2018-02-24T18:54:53.106Z,15.17
2018-02-24T18:57:21.010Z,14.80
2018-02-24T18:59:48.866Z,14.93
2018-02-24T19:02:17.748Z,14.07
2018-02-24T19:04:45.746Z,14.37
2018-02-24T19:07:13.648Z,14.50
2018-02-24T19:09:41.611Z,16.17
2018-02-24T19:12:09.473Z,17.10
2018-02-24T19:14:37.700Z,17.60
2018-02-24T19:17:05.771Z,15.10
2018-02-24T19:19:33.630Z,14.17
2018-02-24T19:22:01.587Z,14.63
2018-02-24T19:24:29.629Z,15.53
2018-02-24T19:26:57.606Z,12.60
2018-02-24T19:29:27.477Z,13.40
2018-02-24T19:31:55.268Z,13.77
2018-02-24T19:34:23.256Z,12.57
2018-02-24T19:36:51.827Z,12.40
2018-02-24T19:39:19.647Z,8.73
2018-02-24T19:41:47.669Z,10.47
2018-02-24T19:44:15.468Z,12.37
2018-02-24T19:46:43.413Z,10.57
2018-02-24T19:49:11.371Z,12.67
2018-02-24T19:51:39.251Z,10.13
2018-02-24T19:54:07.110Z,9.97
2018-02-24T19:56:34.950Z,10.97
2018-02-24T19:59:03.030Z,11.40
2018-02-24T20:01:30.753Z,10.70
2018-02-24T20:03:58.692Z,12.57
2018-02-24T20:06:26.510Z,11.33
2018-02-24T20:08:55.679Z,13.50
2018-02-24T20:11:23.609Z,12.30
2018-02-24T20:13:51.451Z,12.00
2018-02-24T20:16:19.370Z,13.00
2018-02-24T20:18:47.509Z,11.37
2018-02-24T20:21:15.389Z,12.97
2018-02-24T20:23:43.258Z,12.30
2018-02-24T20:26:11.289Z,13.73
2018-02-24T20:28:39.288Z,12.60
2018-02-24T20:31:07.294Z,13.63
2018-02-24T20:33:35.069Z,13.70
2018-02-24T20:36:03.772Z,13.50
2018-02-24T20:38:32.608Z,13.77
2018-02-24T20:41:00.410Z,12.07
2018-02-24T20:43:28.249Z,13.07
2018-02-24T20:45:57.048Z,13.27
2018-02-24T20:48:25.137Z,12.10
2018-02-24T20:50:53.080Z,13.10
2018-02-24T20:53:21.007Z,12.47
2018-02-24T20:55:48.847Z,12.40
2018-02-24T20:58:16.831Z,13.63
2018-02-24T21:00:44.707Z,12.50
2018-02-24T21:03:12.752Z,10.23
2018-02-24T21:05:40.711Z,13.77
2018-02-24T21:08:08.752Z,12.23
2018-02-24T21:10:36.551Z,12.23
2018-02-24T21:13:04.420Z,10.37
2018-02-24T21:15:32.239Z,11.03
2018-02-24T21:18:00.014Z,10.00
2018-02-24T21:20:28.070Z,10.37
2018-02-24T21:22:55.870Z,11.73
2018-02-24T21:25:23.650Z,10.33
2018-02-24T21:27:52.051Z,8.67
2018-02-24T21:30:21.311Z,7.70
2018-02-24T21:32:49.211Z,7.90
2018-02-24T21:35:17.092Z,6.93
2018-02-24T21:37:45.132Z,7.07
2018-02-24T21:40:13.010Z,7.50
2018-02-24T21:42:40.785Z,6.57
2018-02-24T21:45:08.700Z,7.27
2018-02-24T21:47:36.650Z,8.70
2018-02-24T21:50:04.471Z,7.93
2018-02-24T21:52:32.412Z,7.00
2018-02-24T21:55:00.346Z,5.83
2018-02-24T21:57:28.507Z,6.73
2018-02-24T21:59:56.318Z,7.40
2018-02-24T22:02:24.295Z,6.83
2018-02-24T22:04:52.235Z,5.87
2018-02-24T22:07:21.878Z,7.33
2018-02-24T22:09:49.729Z,7.50
2018-02-24T22:12:17.885Z,7.60
2018-02-24T22:14:45.725Z,5.97
2018-02-24T22:17:13.608Z,7.57
2018-02-24T22:19:41.808Z,7.00
2018-02-24T22:22:09.881Z,8.07
2018-02-24T22:24:37.812Z,7.20
2018-02-24T22:27:06.953Z,6.57
2018-02-24T22:29:34.928Z,8.13
2018-02-24T22:32:02.846Z,7.30
2018-02-24T22:34:31.008Z,7.83
2018-02-24T22:36:59.082Z,8.20
2018-02-24T22:39:26.969Z,8.40
2018-02-24T22:41:54.928Z,7.80
2018-02-24T22:44:24.577Z,7.70
2018-02-24T22:46:52.368Z,8.37
2018-02-24T22:49:21.247Z,7.03
2018-02-24T22:51:50.388Z,6.17
2018-02-24T22:54:18.467Z,7.13
2018-02-24T22:56:46.316Z,7.47
2018-02-24T22:59:14.241Z,7.93
2018-02-24T23:01:42.089Z,7.40
2018-02-24T23:04:09.955Z,9.13
2018-02-24T23:06:38.009Z,6.40
2018-02-24T23:09:05.888Z,5.47
2018-02-24T23:11:33.728Z,8.07
2018-02-24T23:14:03.089Z,8.53
2018-02-24T23:16:31.008Z,8.27
2018-02-24T23:18:59.136Z,8.23
2018-02-24T23:21:27.138Z,8.40
2018-02-24T23:23:55.109Z,8.23
2018-02-24T23:26:22.932Z,8.60
2018-02-24T23:28:51.808Z,9.97
2018-02-24T23:31:19.788Z,8.33
2018-02-24T23:33:47.748Z,8.47
2018-02-24T23:36:15.669Z,8.47
2018-02-24T23:38:43.530Z,8.63
2018-02-24T23:41:11.648Z,9.27
2018-02-24T23:43:39.588Z,8.33
2018-02-24T23:46:07.588Z,8.63
2018-02-24T23:48:35.830Z,8.27
2018-02-24T23:51:04.568Z,9.17
2018-02-24T23:53:32.388Z,8.13
2018-02-24T23:56:00.251Z,8.63
2018-02-24T23:58:28.208Z,9.17
